sensor_id;sensor_type;location;lat;lon;timestamp;pressure;altitude;pressure_sealevel;temperature;humidity
80124;BME280;69433;48.642;9.142;2024-03-23T00:53:43;96297.66;;;22.86;37.78
80124;BME280;69433;48.642;9.142;2024-03-23T00:56:08;96300.00;;;22.84;37.83
80124;BME280;69433;48.642;9.142;2024-03-23T00:58:33;96301.16;;;22.83;37.90
80124;BME280;69433;48.642;9.142;2024-03-23T01:00:58;96285.84;;;22.83;38.08
80124;BME280;69433;48.642;9.142;2024-03-23T01:03:24;96280.91;;;22.82;37.81
80124;BME280;69433;48.642;9.142;2024-03-23T01:05:49;96261.38;;;22.81;37.95
80124;BME280;69433;48.642;9.142;2024-03-23T01:08:14;96262.91;;;22.82;37.74
80124;BME280;69433;48.642;9.142;2024-03-23T01:10:40;96269.44;;;22.81;38.11
80124;BME280;69433;48.642;9.142;2024-03-23T01:13:05;96266.75;;;22.81;37.82
80124;BME280;69433;48.642;9.142;2024-03-23T01:15:30;96256.03;;;22.81;37.81
80124;BME280;69433;48.642;9.142;2024-03-23T01:17:56;96256.03;;;22.81;37.84
80124;BME280;69433;48.642;9.142;2024-03-23T01:20:21;96260.28;;;22.79;37.81
80124;BME280;69433;48.642;9.142;2024-03-23T01:22:46;96254.53;;;22.80;37.99
80124;BME280;69433;48.642;9.142;2024-03-23T01:25:11;96253.75;;;22.80;38.07
80124;BME280;69433;48.642;9.142;2024-03-23T01:27:45;96258.38;;;22.79;37.72
80124;BME280;69433;48.642;9.142;2024-03-23T01:30:10;96250.78;;;22.78;38.06
80124;BME280;69433;48.642;9.142;2024-03-23T01:32:36;96255.38;;;22.77;37.71
80124;BME280;69433;48.642;9.142;2024-03-23T01:35:03;96253.13;;;22.76;37.86
80124;BME280;69433;48.642;9.142;2024-03-23T01:37:29;96247.75;;;22.76;38.13
80124;BME280;69433;48.642;9.142;2024-03-23T01:40:19;96244.66;;;22.77;37.87
80124;BME280;69433;48.642;9.142;2024-03-23T01:42:57;96236.28;;;22.75;37.87
80124;BME280;69433;48.642;9.142;2024-03-23T01:45:23;96243.56;;;22.75;37.99
80124;BME280;69433;48.642;9.142;2024-03-23T01:47:50;96240.91;;;22.75;37.71
80124;BME280;69433;48.642;9.142;2024-03-23T01:50:16;96240.91;;;22.75;37.76
80124;BME280;69433;48.642;9.142;2024-03-23T01:52:41;96232.06;;;22.74;37.75
80124;BME280;69433;48.642;9.142;2024-03-23T01:55:07;96232.06;;;22.74;37.77
80124;BME280;69433;48.642;9.142;2024-03-23T01:57:32;96222.53;;;22.73;37.91
80124;BME280;69433;48.642;9.142;2024-03-23T02:00:04;96215.25;;;22.74;37.88
80124;BME280;69433;48.642;9.142;2024-03-23T02:02:31;96209.13;;;22.73;38.01
80124;BME280;69433;48.642;9.142;2024-03-23T02:04:56;96196.91;;;22.72;37.75
80124;BME280;69433;48.642;9.142;2024-03-23T02:07:21;96197.66;;;22.73;37.95
80124;BME280;69433;48.642;9.142;2024-03-23T02:09:49;96203.44;;;22.71;37.71
80124;BME280;69433;48.642;9.142;2024-03-23T02:12:14;96211.13;;;22.69;38.12
80124;BME280;69433;48.642;9.142;2024-03-23T02:14:40;96199.66;;;22.69;37.98
80124;BME280;69433;48.642;9.142;2024-03-23T02:17:22;96192.72;;;22.71;38.03
80124;BME280;69433;48.642;9.142;2024-03-23T02:19:47;96189.69;;;22.69;37.96
80124;BME280;69433;48.642;9.142;2024-03-23T02:22:12;96181.66;;;22.69;37.89
80124;BME280;69433;48.642;9.142;2024-03-23T02:24:38;96183.91;;;22.71;37.81
80124;BME280;69433;48.642;9.142;2024-03-23T02:27:05;96182.84;;;22.68;37.85
80124;BME280;69433;48.642;9.142;2024-03-23T02:29:31;96172.16;;;22.68;37.82
80124;BME280;69433;48.642;9.142;2024-03-23T02:32:17;96174.47;;;22.66;37.74
80124;BME280;69433;48.642;9.142;2024-03-23T02:34:42;96172.97;;;22.65;37.83
80124;BME280;69433;48.642;9.142;2024-03-23T02:37:11;96176.84;;;22.64;37.97
80124;BME280;69433;48.642;9.142;2024-03-23T02:39:37;96176.06;;;22.64;37.97
80124;BME280;69433;48.642;9.142;2024-03-23T02:42:02;96176.84;;;22.64;37.85
80124;BME280;69433;48.642;9.142;2024-03-23T02:44:27;96172.22;;;22.65;37.83
80124;BME280;69433;48.642;9.142;2024-03-23T02:47:13;96161.50;;;22.65;37.80
80124;BME280;69433;48.642;9.142;2024-03-23T02:49:38;96175.31;;;22.63;37.96
80124;BME280;69433;48.642;9.142;2024-03-23T02:52:04;96163.44;;;22.64;37.84
80124;BME280;69433;48.642;9.142;2024-03-23T02:54:29;96161.94;;;22.63;38.07
80124;BME280;69433;48.642;9.142;2024-03-23T02:56:54;96158.06;;;22.64;37.79
80124;BME280;69433;48.642;9.142;2024-03-23T02:59:20;96158.06;;;22.64;37.87
80124;BME280;69433;48.642;9.142;2024-03-23T03:01:45;96154.66;;;22.64;38.04
80124;BME280;69433;48.642;9.142;2024-03-23T03:04:10;96146.28;;;22.62;37.79
80124;BME280;69433;48.642;9.142;2024-03-23T03:06:41;96149.38;;;22.60;37.77
80124;BME280;69433;48.642;9.142;2024-03-23T03:09:06;96139.81;;;22.59;37.86
80124;BME280;69433;48.642;9.142;2024-03-23T03:11:31;96143.25;;;22.59;37.93
80124;BME280;69433;48.642;9.142;2024-03-23T03:13:56;96136.84;;;22.57;37.86
80124;BME280;69433;48.642;9.142;2024-03-23T03:16:22;96146.38;;;22.58;37.86
80124;BME280;69433;48.642;9.142;2024-03-23T03:18:47;96144.75;;;22.61;37.78
80124;BME280;69433;48.642;9.142;2024-03-23T03:21:12;96144.47;;;22.58;38.00
80124;BME280;69433;48.642;9.142;2024-03-23T03:23:38;96144.47;;;22.58;37.88
80124;BME280;69433;48.642;9.142;2024-03-23T03:26:04;96141.78;;;22.58;37.90
80124;BME280;69433;48.642;9.142;2024-03-23T03:28:31;96139.81;;;22.59;37.90
80124;BME280;69433;48.642;9.142;2024-03-23T03:30:57;96135.66;;;22.58;37.81
80124;BME280;69433;48.642;9.142;2024-03-23T03:33:23;96128.03;;;22.56;37.68
80124;BME280;69433;48.642;9.142;2024-03-23T03:35:48;96131.47;;;22.57;38.08
80124;BME280;69433;48.642;9.142;2024-03-23T03:38:14;96126.53;;;22.55;37.84
80124;BME280;69433;48.642;9.142;2024-03-23T03:40:39;96133.41;;;22.56;37.81
80124;BME280;69433;48.642;9.142;2024-03-23T03:43:04;96120.75;;;22.57;38.01
80124;BME280;69433;48.642;9.142;2024-03-23T03:45:30;96111.97;;;22.56;37.87
80124;BME280;69433;48.642;9.142;2024-03-23T03:47:55;96102.84;;;22.54;37.92
80124;BME280;69433;48.642;9.142;2024-03-23T03:50:21;96090.22;;;22.54;37.77
80124;BME280;69433;48.642;9.142;2024-03-23T03:52:50;96100.16;;;22.54;37.82
80124;BME280;69433;48.642;9.142;2024-03-23T03:55:15;96100.50;;;22.56;37.98
80124;BME280;69433;48.642;9.142;2024-03-23T03:57:41;96086.78;;;22.54;37.92
80124;BME280;69433;48.642;9.142;2024-03-23T04:00:06;96081.75;;;22.56;37.98
80124;BME280;69433;48.642;9.142;2024-03-23T04:02:34;96073.72;;;22.56;37.91
80124;BME280;69433;48.642;9.142;2024-03-23T04:04:59;96063.00;;;22.56;38.02
80124;BME280;69433;48.642;9.142;2024-03-23T04:07:24;96061.50;;;22.55;37.90
80124;BME280;69433;48.642;9.142;2024-03-23T04:09:50;96050.03;;;22.54;37.92
80124;BME280;69433;48.642;9.142;2024-03-23T04:12:15;96046.59;;;22.54;37.80
80124;BME280;69433;48.642;9.142;2024-03-23T04:14:40;96036.22;;;22.56;37.89
80124;BME280;69433;48.642;9.142;2024-03-23T04:17:06;96038.56;;;22.54;37.82
80124;BME280;69433;48.642;9.142;2024-03-23T04:19:31;96035.13;;;22.53;37.70
80124;BME280;69433;48.642;9.142;2024-03-23T04:21:56;96022.81;;;22.56;37.94
80124;BME280;69433;48.642;9.142;2024-03-23T04:24:22;96010.94;;;22.57;37.95
80124;BME280;69433;48.642;9.142;2024-03-23T04:26:47;95998.72;;;22.56;38.13
80124;BME280;69433;48.642;9.142;2024-03-23T04:29:13;95995.63;;;22.57;38.16
80124;BME280;69433;48.642;9.142;2024-03-23T04:31:38;95991.44;;;22.56;37.98
80124;BME280;69433;48.642;9.142;2024-03-23T04:34:04;95992.19;;;22.57;37.96
80124;BME280;69433;48.642;9.142;2024-03-23T04:37:01;95995.63;;;22.57;37.97
80124;BME280;69433;48.642;9.142;2024-03-23T04:39:27;95982.19;;;22.45;38.30
80124;BME280;69433;48.642;9.142;2024-03-23T04:41:52;95985.47;;;22.24;38.47
80124;BME280;69433;48.642;9.142;2024-03-23T04:44:17;95988.41;;;22.13;38.49
80124;BME280;69433;48.642;9.142;2024-03-23T04:46:42;95991.63;;;22.08;38.34
80124;BME280;69433;48.642;9.142;2024-03-23T04:49:10;95976.41;;;22.05;38.23
80124;BME280;69433;48.642;9.142;2024-03-23T04:51:36;95962.06;;;21.99;38.24
80124;BME280;69433;48.642;9.142;2024-03-23T04:54:05;95964.72;;;21.99;38.14
80124;BME280;69433;48.642;9.142;2024-03-23T04:56:31;95992.66;;;21.98;38.05
80124;BME280;69433;48.642;9.142;2024-03-23T04:58:56;96042.38;;;21.95;38.12
80124;BME280;69433;48.642;9.142;2024-03-23T05:01:26;96044.63;;;22.13;37.73
80124;BME280;69433;48.642;9.142;2024-03-23T05:03:51;96051.75;;;22.19;37.77
80124;BME280;69433;48.642;9.142;2024-03-23T05:06:18;96062.25;;;22.27;37.64
80124;BME280;69433;48.642;9.142;2024-03-23T05:08:43;96060.69;;;22.29;37.68
80124;BME280;69433;48.642;9.142;2024-03-23T05:11:08;96072.13;;;22.30;37.60
80124;BME280;69433;48.642;9.142;2024-03-23T05:13:34;96080.47;;;22.32;37.63
80124;BME280;69433;48.642;9.142;2024-03-23T05:15:59;96069.78;;;22.32;37.60
80124;BME280;69433;48.642;9.142;2024-03-23T05:18:24;96079.72;;;22.31;37.71
80124;BME280;69433;48.642;9.142;2024-03-23T05:23:56;96085.75;;;22.35;37.55
80124;BME280;69433;48.642;9.142;2024-03-23T05:26:22;96076.53;;;22.36;37.54
80124;BME280;69433;48.642;9.142;2024-03-23T05:28:48;96074.22;;;22.38;37.63
80124;BME280;69433;48.642;9.142;2024-03-23T05:31:23;96080.31;;;22.39;37.45
80124;BME280;69433;48.642;9.142;2024-03-23T05:33:48;96085.22;;;22.40;37.71
80124;BME280;69433;48.642;9.142;2024-03-23T05:36:13;96089.00;;;22.43;37.43
80124;BME280;69433;48.642;9.142;2024-03-23T05:38:38;96102.72;;;22.45;37.42
80124;BME280;69433;48.642;9.142;2024-03-23T05:41:04;96114.59;;;22.44;37.40
80124;BME280;69433;48.642;9.142;2024-03-23T05:43:29;96127.25;;;22.43;37.42
80124;BME280;69433;48.642;9.142;2024-03-23T05:45:55;96129.91;;;22.43;37.47
80124;BME280;69433;48.642;9.142;2024-03-23T05:48:20;96139.13;;;22.42;37.40
80124;BME280;69433;48.642;9.142;2024-03-23T05:50:46;96128.81;;;22.41;37.48
80124;BME280;69433;48.642;9.142;2024-03-23T05:53:11;96131.84;;;22.43;37.65
80124;BME280;69433;48.642;9.142;2024-03-23T05:55:38;96137.19;;;22.43;37.43
80124;BME280;69433;48.642;9.142;2024-03-23T05:58:03;96127.66;;;22.42;37.56
80124;BME280;69433;48.642;9.142;2024-03-23T06:00:28;96123.81;;;22.43;37.59
80124;BME280;69433;48.642;9.142;2024-03-23T06:02:54;96137.19;;;22.43;37.60
80124;BME280;69433;48.642;9.142;2024-03-23T06:05:27;96146.41;;;22.42;37.47
80124;BME280;69433;48.642;9.142;2024-03-23T06:07:52;96151.00;;;22.41;37.55
80124;BME280;69433;48.642;9.142;2024-03-23T06:10:17;96160.97;;;22.41;37.61
80124;BME280;69433;48.642;9.142;2024-03-23T06:12:43;96158.28;;;22.41;37.55
80124;BME280;69433;48.642;9.142;2024-03-23T06:15:08;96164.41;;;22.41;37.66
80124;BME280;69433;48.642;9.142;2024-03-23T06:17:38;96172.84;;;22.40;37.73
80124;BME280;69433;48.642;9.142;2024-03-23T06:20:19;96177.47;;;22.39;37.57
80124;BME280;69433;48.642;9.142;2024-03-23T06:22:44;96177.03;;;22.41;37.49
80124;BME280;69433;48.642;9.142;2024-03-23T06:25:09;96198.16;;;22.39;37.74
80124;BME280;69433;48.642;9.142;2024-03-23T06:27:34;96211.94;;;22.37;37.72
80124;BME280;69433;48.642;9.142;2024-03-23T06:30:00;96209.28;;;22.37;37.68
80124;BME280;69433;48.642;9.142;2024-03-23T06:32:27;96219.56;;;22.39;37.56
80124;BME280;69433;48.642;9.142;2024-03-23T06:35:07;96226.84;;;22.38;37.70
80124;BME280;69433;48.642;9.142;2024-03-23T06:37:35;96224.59;;;22.37;37.62
80124;BME280;69433;48.642;9.142;2024-03-23T06:40:00;96233.38;;;22.37;37.74
80124;BME280;69433;48.642;9.142;2024-03-23T06:42:26;96232.97;;;22.39;37.81
80124;BME280;69433;48.642;9.142;2024-03-23T06:44:51;96241.41;;;22.37;37.72
80124;BME280;69433;48.642;9.142;2024-03-23T06:47:16;96251.03;;;22.35;37.68
80124;BME280;69433;48.642;9.142;2024-03-23T06:49:42;96249.44;;;22.37;37.80
80124;BME280;69433;48.642;9.142;2024-03-23T06:52:15;96253.28;;;22.36;37.76
80124;BME280;69433;48.642;9.142;2024-03-23T06:54:41;96273.13;;;22.39;37.74
80124;BME280;69433;48.642;9.142;2024-03-23T06:57:06;96278.50;;;22.39;37.53
80124;BME280;69433;48.642;9.142;2024-03-23T06:59:32;96276.13;;;22.41;37.76
80124;BME280;69433;48.642;9.142;2024-03-23T07:01:57;96283.84;;;22.39;37.64
80124;BME280;69433;48.642;9.142;2024-03-23T07:04:22;96281.47;;;22.41;37.76
80124;BME280;69433;48.642;9.142;2024-03-23T07:06:59;96299.06;;;22.42;37.82
80124;BME280;69433;48.642;9.142;2024-03-23T07:09:24;96302.50;;;22.42;37.72
80124;BME280;69433;48.642;9.142;2024-03-23T07:11:53;96301.31;;;22.43;37.80
80124;BME280;69433;48.642;9.142;2024-03-23T07:14:18;96284.09;;;22.44;37.67
80124;BME280;69433;48.642;9.142;2024-03-23T07:16:43;96303.59;;;22.45;37.83
80124;BME280;69433;48.642;9.142;2024-03-23T07:19:10;96293.13;;;22.50;37.55
80124;BME280;69433;48.642;9.142;2024-03-23T07:21:36;96294.22;;;22.53;37.43
80124;BME280;69433;48.642;9.142;2024-03-23T07:24:01;96291.81;;;22.58;37.35
80124;BME280;69433;48.642;9.142;2024-03-23T07:26:26;96301.31;;;22.59;37.56
80124;BME280;69433;48.642;9.142;2024-03-23T07:28:52;96307.28;;;22.67;37.33
80124;BME280;69433;48.642;9.142;2024-03-23T07:31:18;96317.13;;;22.70;37.16
80124;BME280;69433;48.642;9.142;2024-03-23T07:33:46;96323.66;;;22.69;37.45
80124;BME280;69433;48.642;9.142;2024-03-23T07:36:12;96319.50;;;22.68;37.39
80124;BME280;69433;48.642;9.142;2024-03-23T07:38:39;96315.63;;;22.69;37.31
80124;BME280;69433;48.642;9.142;2024-03-23T07:41:10;96332.00;;;22.75;37.21
80124;BME280;69433;48.642;9.142;2024-03-23T07:43:36;96342.34;;;22.73;37.24
80124;BME280;69433;48.642;9.142;2024-03-23T07:46:07;96340.78;;;22.75;37.09
80124;BME280;69433;48.642;9.142;2024-03-23T07:48:33;96340.63;;;22.82;37.12
80124;BME280;69433;48.642;9.142;2024-03-23T07:51:06;96342.13;;;22.83;37.05
80124;BME280;69433;48.642;9.142;2024-03-23T07:53:32;96348.31;;;22.80;37.18
80124;BME280;69433;48.642;9.142;2024-03-23T07:56:02;96354.09;;;22.79;37.40
80124;BME280;69433;48.642;9.142;2024-03-23T07:58:28;96367.63;;;22.72;37.19
80124;BME280;69433;48.642;9.142;2024-03-23T08:00:54;96384.53;;;22.69;37.34
80124;BME280;69433;48.642;9.142;2024-03-23T08:03:19;96374.25;;;22.67;37.63
80124;BME280;69433;48.642;9.142;2024-03-23T08:05:45;96393.84;;;22.64;37.65
80124;BME280;69433;48.642;9.142;2024-03-23T08:08:10;96403.81;;;22.64;37.68
80124;BME280;69433;48.642;9.142;2024-03-23T08:10:49;96404.56;;;22.64;37.68
80124;BME280;69433;48.642;9.142;2024-03-23T08:13:14;96395.69;;;22.67;37.50
80124;BME280;69433;48.642;9.142;2024-03-23T08:15:39;96425.25;;;22.64;37.72
80124;BME280;69433;48.642;9.142;2024-03-23T08:18:04;96430.25;;;22.62;37.70
80124;BME280;69433;48.642;9.142;2024-03-23T08:20:30;96448.34;;;22.57;37.55
80124;BME280;69433;48.642;9.142;2024-03-23T08:22:55;96470.19;;;22.56;37.83
80124;BME280;69433;48.642;9.142;2024-03-23T08:25:20;96469.50;;;22.52;37.96
80124;BME280;69433;48.642;9.142;2024-03-23T08:27:46;96472.59;;;22.50;37.96
80124;BME280;69433;48.642;9.142;2024-03-23T08:30:45;96479.56;;;22.48;38.11
80124;BME280;69433;48.642;9.142;2024-03-23T08:33:11;96473.44;;;22.47;38.25
80124;BME280;69433;48.642;9.142;2024-03-23T08:35:36;96460.44;;;22.46;38.18
80124;BME280;69433;48.642;9.142;2024-03-23T08:38:01;96460.88;;;22.44;38.08
80124;BME280;69433;48.642;9.142;2024-03-23T08:40:26;96462.81;;;22.60;37.83
80124;BME280;69433;48.642;9.142;2024-03-23T08:42:52;96459.25;;;22.67;37.88
80124;BME280;69433;48.642;9.142;2024-03-23T08:45:17;96486.81;;;22.67;37.64
80124;BME280;69433;48.642;9.142;2024-03-23T08:47:42;96503.69;;;22.64;37.76
80124;BME280;69433;48.642;9.142;2024-03-23T08:50:08;96507.59;;;22.59;37.99
80124;BME280;69433;48.642;9.142;2024-03-23T08:52:35;96506.78;;;22.63;37.88
80124;BME280;69433;48.642;9.142;2024-03-23T08:55:00;96533.16;;;22.64;37.93
80124;BME280;69433;48.642;9.142;2024-03-23T08:57:42;96537.22;;;22.72;37.54
80124;BME280;69433;48.642;9.142;2024-03-23T09:00:08;96548.97;;;22.78;37.69
80124;BME280;69433;48.642;9.142;2024-03-23T09:02:34;96551.53;;;22.85;37.46
80124;BME280;69433;48.642;9.142;2024-03-23T09:04:59;96559.06;;;22.90;37.45
80124;BME280;69433;48.642;9.142;2024-03-23T09:10:51;96579.53;;;23.01;37.08
80124;BME280;69433;48.642;9.142;2024-03-23T09:13:17;96593.28;;;23.03;37.37
80124;BME280;69433;48.642;9.142;2024-03-23T09:15:48;96595.91;;;23.06;36.97
80124;BME280;69433;48.642;9.142;2024-03-23T09:18:32;96606.13;;;23.11;36.79
80124;BME280;69433;48.642;9.142;2024-03-23T09:20:57;96611.06;;;23.13;36.80
80124;BME280;69433;48.642;9.142;2024-03-23T09:23:23;96618.28;;;23.16;37.04
80124;BME280;69433;48.642;9.142;2024-03-23T09:25:48;96616.63;;;23.22;36.98
80124;BME280;69433;48.642;9.142;2024-03-23T09:28:15;96618.38;;;23.28;37.08
80124;BME280;69433;48.642;9.142;2024-03-23T09:30:41;96613.38;;;23.30;36.70
80124;BME280;69433;48.642;9.142;2024-03-23T09:33:09;96609.44;;;23.35;36.83
80124;BME280;69433;48.642;9.142;2024-03-23T09:35:41;96603.56;;;23.40;36.64
80124;BME280;69433;48.642;9.142;2024-03-23T09:38:16;96602.25;;;23.48;36.86
80124;BME280;69433;48.642;9.142;2024-03-23T09:40:41;96589.78;;;23.58;36.85
80124;BME280;69433;48.642;9.142;2024-03-23T09:43:19;96584.69;;;23.63;36.45
80124;BME280;69433;48.642;9.142;2024-03-23T09:45:45;96589.03;;;23.57;36.68
80124;BME280;69433;48.642;9.142;2024-03-23T09:48:11;96574.09;;;23.56;36.82
80124;BME280;69433;48.642;9.142;2024-03-23T09:50:45;96585.94;;;23.59;37.10
80124;BME280;69433;48.642;9.142;2024-03-23T09:53:11;96584.75;;;23.60;37.02
80124;BME280;69433;48.642;9.142;2024-03-23T09:55:37;96593.56;;;23.60;37.41
80124;BME280;69433;48.642;9.142;2024-03-23T09:58:04;96589.72;;;23.61;37.25
80124;BME280;69433;48.642;9.142;2024-03-23T10:00:36;96591.97;;;23.63;37.45
80124;BME280;69433;48.642;9.142;2024-03-23T10:03:01;96596.50;;;23.66;37.10
80124;BME280;69433;48.642;9.142;2024-03-23T10:05:28;96586.44;;;23.70;37.01
80124;BME280;69433;48.642;9.142;2024-03-23T10:07:54;96581.81;;;23.71;37.44
80124;BME280;69433;48.642;9.142;2024-03-23T10:10:19;96585.16;;;23.75;37.17
80124;BME280;69433;48.642;9.142;2024-03-23T10:12:47;96577.44;;;23.77;37.36
80124;BME280;69433;48.642;9.142;2024-03-23T10:15:26;96581.91;;;23.83;37.37
80124;BME280;69433;48.642;9.142;2024-03-23T10:17:52;96574.59;;;23.84;37.47
80124;BME280;69433;48.642;9.142;2024-03-23T10:20:21;96568.03;;;23.85;37.19
80124;BME280;69433;48.642;9.142;2024-03-23T10:22:50;96564.53;;;23.88;37.41
80124;BME280;69433;48.642;9.142;2024-03-23T10:25:22;96562.19;;;23.90;37.13
80124;BME280;69433;48.642;9.142;2024-03-23T10:27:58;96550.91;;;23.95;37.12
80124;BME280;69433;48.642;9.142;2024-03-23T10:30:24;96567.63;;;24.02;37.30
80124;BME280;69433;48.642;9.142;2024-03-23T10:33:06;96571.28;;;24.09;37.06
80124;BME280;69433;48.642;9.142;2024-03-23T10:35:32;96559.66;;;23.99;37.48
80124;BME280;69433;48.642;9.142;2024-03-23T10:37:57;96565.50;;;23.94;37.65
80124;BME280;69433;48.642;9.142;2024-03-23T10:43:26;96553.22;;;23.80;37.80
80124;BME280;69433;48.642;9.142;2024-03-23T10:45:51;96553.72;;;23.75;38.26
80124;BME280;69433;48.642;9.142;2024-03-23T10:48:17;96552.78;;;23.65;38.25
80124;BME280;69433;48.642;9.142;2024-03-23T10:50:42;96564.88;;;23.57;37.63
80124;BME280;69433;48.642;9.142;2024-03-23T10:53:07;96590.75;;;23.48;37.05
80124;BME280;69433;48.642;9.142;2024-03-23T10:55:33;96605.81;;;23.25;35.57
80124;BME280;69433;48.642;9.142;2024-03-23T10:57:59;96638.09;;;23.02;35.58
80124;BME280;69433;48.642;9.142;2024-03-23T11:00:25;96636.72;;;23.14;35.83
80124;BME280;69433;48.642;9.142;2024-03-23T11:02:51;96640.16;;;23.14;34.78
80124;BME280;69433;48.642;9.142;2024-03-23T11:07:52;96640.94;;;23.31;35.61
80124;BME280;69433;48.642;9.142;2024-03-23T11:10:31;96602.56;;;23.34;35.13
80124;BME280;69433;48.642;9.142;2024-03-23T11:12:58;96605.66;;;23.33;35.09
80124;BME280;69433;48.642;9.142;2024-03-23T11:15:23;96623.69;;;23.32;34.99
80124;BME280;69433;48.642;9.142;2024-03-23T11:20:33;96627.47;;;23.35;35.43
80124;BME280;69433;48.642;9.142;2024-03-23T11:22:59;96625.53;;;23.35;35.52
80124;BME280;69433;48.642;9.142;2024-03-23T11:25:26;96625.19;;;23.33;35.33
80124;BME280;69433;48.642;9.142;2024-03-23T11:27:52;96632.22;;;23.27;35.44
80124;BME280;69433;48.642;9.142;2024-03-23T11:30:25;96621.41;;;23.30;35.61
80124;BME280;69433;48.642;9.142;2024-03-23T11:32:52;96627.78;;;23.37;35.32
80124;BME280;69433;48.642;9.142;2024-03-23T11:40:36;96622.59;;;23.46;35.31
80124;BME280;69433;48.642;9.142;2024-03-23T11:43:04;96624.22;;;23.43;35.32
80124;BME280;69433;48.642;9.142;2024-03-23T11:45:34;96621.66;;;23.36;35.64
80124;BME280;69433;48.642;9.142;2024-03-23T11:48:07;96618.66;;;23.34;35.68
80124;BME280;69433;48.642;9.142;2024-03-23T11:50:35;96624.78;;;23.35;35.60
80124;BME280;69433;48.642;9.142;2024-03-23T11:53:14;96635.16;;;23.33;35.59
80124;BME280;69433;48.642;9.142;2024-03-23T11:55:42;96635.94;;;23.33;35.74
80124;BME280;69433;48.642;9.142;2024-03-23T11:58:08;96636.34;;;23.31;36.05
80124;BME280;69433;48.642;9.142;2024-03-23T12:00:34;96629.06;;;23.32;36.15
80124;BME280;69433;48.642;9.142;2024-03-23T12:03:03;96627.03;;;23.36;35.84
80124;BME280;69433;48.642;9.142;2024-03-23T12:05:29;96623.19;;;23.37;36.02
80124;BME280;69433;48.642;9.142;2024-03-23T12:07:55;96619.25;;;23.42;35.86
80124;BME280;69433;48.642;9.142;2024-03-23T12:10:20;96609.19;;;23.46;35.67
80124;BME280;69433;48.642;9.142;2024-03-23T12:12:46;96605.75;;;23.45;35.92
80124;BME280;69433;48.642;9.142;2024-03-23T12:15:17;96613.78;;;23.45;36.08
80124;BME280;69433;48.642;9.142;2024-03-23T12:17:42;96609.28;;;23.42;35.93
80124;BME280;69433;48.642;9.142;2024-03-23T12:20:08;96608.59;;;23.38;35.93
80124;BME280;69433;48.642;9.142;2024-03-23T12:22:33;96611.69;;;23.37;35.82
80124;BME280;69433;48.642;9.142;2024-03-23T12:25:00;96605.25;;;23.34;36.27
80124;BME280;69433;48.642;9.142;2024-03-23T12:27:25;96610.28;;;23.32;35.83
80124;BME280;69433;48.642;9.142;2024-03-23T12:29:51;96611.44;;;23.31;36.30
80124;BME280;69433;48.642;9.142;2024-03-23T12:32:16;96603.41;;;23.31;36.05
80124;BME280;69433;48.642;9.142;2024-03-23T12:34:42;96609.94;;;23.30;36.25
80124;BME280;69433;48.642;9.142;2024-03-23T12:37:07;96602.63;;;23.30;36.37
80124;BME280;69433;48.642;9.142;2024-03-23T12:39:33;96597.22;;;23.34;36.00
80124;BME280;69433;48.642;9.142;2024-03-23T12:42:00;96605.63;;;23.52;36.09
80124;BME280;69433;48.642;9.142;2024-03-23T12:44:25;96604.72;;;23.59;35.90
80124;BME280;69433;48.642;9.142;2024-03-23T12:46:50;96602.09;;;23.55;35.72
80124;BME280;69433;48.642;9.142;2024-03-23T12:49:16;96606.47;;;23.49;35.97
80124;BME280;69433;48.642;9.142;2024-03-23T12:51:52;96606.19;;;23.44;36.17
80124;BME280;69433;48.642;9.142;2024-03-23T12:54:19;96600.06;;;23.43;35.99
80124;BME280;69433;48.642;9.142;2024-03-23T12:56:45;96596.69;;;23.39;36.26
80124;BME280;69433;48.642;9.142;2024-03-23T12:59:11;96594.00;;;23.39;36.14
80124;BME280;69433;48.642;9.142;2024-03-23T13:01:36;96590.00;;;23.47;36.29
80124;BME280;69433;48.642;9.142;2024-03-23T13:04:01;96598.47;;;23.46;36.25
80124;BME280;69433;48.642;9.142;2024-03-23T13:06:29;96597.38;;;23.43;36.09
80124;BME280;69433;48.642;9.142;2024-03-23T13:09:00;96592.50;;;23.38;36.35
80124;BME280;69433;48.642;9.142;2024-03-23T13:11:25;96601.72;;;23.37;36.16
80124;BME280;69433;48.642;9.142;2024-03-23T13:13:53;96596.44;;;23.34;36.45
80124;BME280;69433;48.642;9.142;2024-03-23T13:16:18;96602.97;;;23.33;36.51
80124;BME280;69433;48.642;9.142;2024-03-23T13:18:44;96615.28;;;23.30;36.44
80124;BME280;69433;48.642;9.142;2024-03-23T13:21:09;96627.94;;;23.29;36.06
80124;BME280;69433;48.642;9.142;2024-03-23T13:23:34;96623.41;;;23.26;36.42
80124;BME280;69433;48.642;9.142;2024-03-23T13:26:00;96631.78;;;23.28;36.27
80124;BME280;69433;48.642;9.142;2024-03-23T13:28:26;96622.34;;;23.40;36.12
80124;BME280;69433;48.642;9.142;2024-03-23T13:30:56;96616.91;;;23.44;36.08
80124;BME280;69433;48.642;9.142;2024-03-23T13:33:22;96603.72;;;23.53;36.13
80124;BME280;69433;48.642;9.142;2024-03-23T13:35:54;96579.16;;;23.54;36.20
80124;BME280;69433;48.642;9.142;2024-03-23T13:38:22;96571.41;;;23.56;35.67
80124;BME280;69433;48.642;9.142;2024-03-23T13:43:19;96546.44;;;23.59;35.77
80124;BME280;69433;48.642;9.142;2024-03-23T13:45:47;96545.19;;;23.64;35.70
80124;BME280;69433;48.642;9.142;2024-03-23T13:48:13;96544.44;;;23.63;35.70
80124;BME280;69433;48.642;9.142;2024-03-23T13:50:38;96537.78;;;23.68;35.81
80124;BME280;69433;48.642;9.142;2024-03-23T13:53:05;96545.09;;;23.67;35.78
80124;BME280;69433;48.642;9.142;2024-03-23T13:55:31;96544.44;;;23.63;35.77
80124;BME280;69433;48.642;9.142;2024-03-23T13:57:56;96546.59;;;23.68;36.17
80124;BME280;69433;48.642;9.142;2024-03-23T14:00:23;96537.28;;;23.73;36.02
80124;BME280;69433;48.642;9.142;2024-03-23T14:02:48;96544.06;;;23.78;35.73
80124;BME280;69433;48.642;9.142;2024-03-23T14:05:14;96538.06;;;23.74;36.07
80124;BME280;69433;48.642;9.142;2024-03-23T14:07:39;96523.53;;;23.71;35.79
80124;BME280;69433;48.642;9.142;2024-03-23T14:10:04;96533.78;;;23.60;35.95
80124;BME280;69433;48.642;9.142;2024-03-23T14:12:31;96543.94;;;23.52;35.69
80124;BME280;69433;48.642;9.142;2024-03-23T14:14:57;96530.22;;;23.47;36.22